Time,TemperatureF,DewpointF,PressureIn,WindDirection,WindDirectionDegrees,WindSpeedMPH,WindSpeedGustMPH,Humidity,HourlyPrecipIn,Conditions,Clouds,dailyrainin,SoftwareType,DateUTC
2014-08-27 00:10:00,62.0,59.6,30.19,North,-999,0.0,0.0,92,0.00,,,-99.99,WeatherLink 5.7,2014-08-27 05:10:00,
2014-08-27 00:30:00,61.7,59.4,30.20,North,-999,0.0,0.0,92,0.00,,,-99.99,WeatherLink 5.7,2014-08-27 05:30:00,
2014-08-27 01:00:00,61.7,60.0,30.19,North,-999,0.0,0.0,94,0.00,,,-99.99,WeatherLink 5.7,2014-08-27 06:00:00,
2014-08-27 01:30:00,61.2,59.5,30.19,North,-999,0.0,1.0,94,0.00,,,-99.99,WeatherLink 5.7,2014-08-27 06:30:00,
2014-08-27 02:00:00,60.6,59.2,30.20,North,-999,0.0,0.0,95,0.00,,,-99.99,WeatherLink 5.7,2014-08-27 07:00:00,
2014-08-27 02:30:00,60.2,59.1,30.21,North,-999,0.0,0.0,96,0.00,,,-99.99,WeatherLink 5.7,2014-08-27 07:30:00,
2014-08-27 03:00:00,60.0,59.1,30.20,South,180,0.0,21.0,97,0.00,,,-99.99,WeatherLink 5.7,2014-08-27 08:00:00,
2014-08-27 03:30:00,59.7,58.8,30.19,ESE,112,0.0,2.0,97,0.00,,,-99.99,WeatherLink 5.7,2014-08-27 08:30:00,
2014-08-27 04:00:00,59.6,59.0,30.19,ESE,112,0.0,3.0,98,0.00,,,-99.99,WeatherLink 5.7,2014-08-27 09:00:00,
2014-08-27 04:30:00,59.3,58.4,30.18,ESE,112,0.0,3.0,97,0.00,,,-99.99,WeatherLink 5.7,2014-08-27 09:30:00,
2014-08-27 05:00:00,59.1,58.0,30.19,North,-999,0.0,0.0,96,0.00,,,-99.99,WeatherLink 5.7,2014-08-27 10:00:00,
2014-08-27 05:30:00,58.8,57.4,30.19,ESE,112,0.0,2.0,95,0.00,,,-99.99,WeatherLink 5.7,2014-08-27 10:30:00,
2014-08-27 06:00:00,58.7,57.6,30.20,North,-999,0.0,0.0,96,0.00,,,-99.99,WeatherLink 5.7,2014-08-27 11:00:00,
2014-08-27 06:30:00,58.5,57.1,30.19,North,-999,0.0,0.0,95,0.00,,,-99.99,WeatherLink 5.7,2014-08-27 11:30:00,
2014-08-27 07:00:00,58.0,56.6,30.19,North,-999,0.0,0.0,95,0.00,,,-99.99,WeatherLink 5.7,2014-08-27 12:00:00,
2014-08-27 07:30:00,57.6,56.8,30.20,North,-999,0.0,0.0,97,0.00,,,-99.99,WeatherLink 5.7,2014-08-27 12:30:00,
2014-08-27 08:00:00,58.0,56.9,30.21,ESE,112,0.0,1.0,96,0.00,,,-99.99,WeatherLink 5.7,2014-08-27 13:00:00,
2014-08-27 08:30:00,59.7,56.1,30.21,East,90,0.0,2.0,88,0.00,,,-99.99,WeatherLink 5.7,2014-08-27 13:30:00,
2014-08-27 09:00:00,62.4,57.2,30.21,East,90,0.0,4.0,83,0.00,,,-99.99,WeatherLink 5.7,2014-08-27 14:00:00,
2014-08-27 09:30:00,64.5,57.5,30.21,ESE,112,0.0,1.0,78,0.00,,,-99.99,WeatherLink 5.7,2014-08-27 14:30:00,
2014-08-27 10:00:00,65.4,58.0,30.22,North,-999,0.0,0.0,77,0.00,,,-99.99,WeatherLink 5.7,2014-08-27 15:00:00,
2014-08-27 10:30:00,65.6,57.1,30.22,East,90,0.0,3.0,74,0.00,,,-99.99,WeatherLink 5.7,2014-08-27 15:30:00,
2014-08-27 11:00:00,65.7,57.9,30.24,East,90,0.0,3.0,76,0.00,,,-99.99,WeatherLink 5.7,2014-08-27 16:00:00,
2014-08-27 11:30:00,66.0,58.6,30.23,North,-999,0.0,8.0,77,0.00,,,-99.99,WeatherLink 5.7,2014-08-27 16:30:00,
2014-08-27 12:00:00,66.5,58.3,30.23,North,-999,0.0,0.0,75,0.00,,,-99.99,WeatherLink 5.7,2014-08-27 17:00:00,